KILM/ILM METAR and TAF weather

Enter ICAO airport designator
Station Type Date Time Source
KILM METAR 2019/09/20 08:53 UTC NOAA

KILM 200853Z AUTO 03005KT 10SM CLR 15/13 A3025 RMK AO2 SLP242 T01500133 53001


Station Type Date Time Source
KILM Decoded METAR 2019/09/20 08:53 UTC NOAA

WILMINGTON INT'L AIRPORT, NC, United States (KILM) 34-16N 077-54W 9M
Sep 20, 2019 - 04:53 AM EDT / 2019.09.20 0853 UTC
Wind: from the NNE (030 degrees) at 6 MPH (5 KT):0
Visibility: 10 mile(s):0
Sky conditions: clear
Temperature: 59.0 F (15.0 C)
Dew Point: 55.9 F (13.3 C)
Relative Humidity: 89%
Pressure (altimeter): 30.25 in. Hg (1024 hPa)
Pressure tendency: 0.00 inches (0.1 hPa) higher than three hours ago
ob: KILM 200853Z AUTO 03005KT 10SM CLR 15/13 A3025 RMK AO2 SLP242 T01500133 53001
cycle: 9

Station Type Date Time Source
KILM TAF 2019/09/20 06:22 UTC NOAA

TAF KILM 200520Z 2006/2106 03006KT P6SM SKC
FM201900 12007KT P6SM FEW040
FM210000 00000KT P6SM SKC

Example: see airport list